Time;durP1;ratioP1;P1;durP2;ratioP2;P2;SDS_P1;SDS_P2;PMS_P1;PMS_P2;Temp;Humidity;BMP_temperature;BMP_pressure;BME280_temperature;BME280_humidity;BME280_pressure;Samples;Min_cycle;Max_cycle;Signal;HPM_P1;HPM_P2
2023/01/23 00:01:33;;;;;;;2.53;0.60;;;26.70;99.90;;;;;;5074289;28;20538;-79
2023/01/23 00:04:01;;;;;;;3.27;0.50;;;25.70;99.90;;;;;;5074414;28;20191;-70
2023/01/23 00:06:29;;;;;;;3.90;0.63;;;25.80;99.90;;;;;;5074025;28;20211;-76
2023/01/23 00:08:56;;;;;;;2.27;0.67;;;26.90;99.90;;;;;;5072685;28;20216;-70
2023/01/23 00:11:29;;;;;;;6.57;0.60;;;27.80;99.90;;;;;;5074319;28;20172;-71
2023/01/23 00:13:58;;;;;;;1.37;0.60;;;28.50;99.90;;;;;;5074389;28;20188;-70
2023/01/23 00:16:28;;;;;;;3.60;0.50;;;29.20;99.90;;;;;;5073990;28;20176;-70
2023/01/23 00:18:56;;;;;;;1.90;0.57;;;29.60;99.90;;;;;;5074227;28;20695;-69
2023/01/23 00:21:27;;;;;;;2.50;0.43;;;29.70;99.90;;;;;;5074101;28;20210;-70
2023/01/23 00:23:56;;;;;;;1.67;0.40;;;29.60;99.90;;;;;;5073908;28;20202;-71
2023/01/23 00:26:27;;;;;;;1.63;0.47;;;30.10;99.90;;;;;;5074000;28;20176;-72
2023/01/23 00:28:54;;;;;;;4.10;0.60;;;30.70;99.90;;;;;;5073810;28;20226;-70
2023/01/23 00:31:25;;;;;;;1.13;0.30;;;30.60;99.90;;;;;;5073854;28;20519;-71
2023/01/23 00:34:00;;;;;;;1.93;0.60;;;29.50;99.90;;;;;;5074179;28;20575;-74
2023/01/23 00:36:34;;;;;;;2.17;0.67;;;28.40;99.90;;;;;;5073580;28;20179;-80
2023/01/23 00:39:05;;;;;;;1.20;0.50;;;27.70;99.90;;;;;;5072558;28;20686;-70
2023/01/23 00:41:33;;;;;;;2.70;0.50;;;27.20;99.90;;;;;;5074112;28;20164;-72
2023/01/23 00:44:00;;;;;;;3.73;0.67;;;27.80;99.90;;;;;;5073686;28;20256;-78
2023/01/23 00:46:27;;;;;;;5.23;0.60;;;28.70;99.90;;;;;;5073827;28;20183;-70
2023/01/23 00:48:55;;;;;;;2.17;0.60;;;29.00;99.90;;;;;;5073719;28;20212;-70
2023/01/23 00:51:22;;;;;;;2.33;0.53;;;29.40;99.90;;;;;;5072963;28;20271;-69
2023/01/23 00:53:50;;;;;;;7.60;0.57;;;29.50;99.90;;;;;;5073512;28;20188;-70
2023/01/23 00:56:17;;;;;;;4.20;0.80;;;28.40;99.90;;;;;;5073661;28;20217;-70
2023/01/23 00:58:45;;;;;;;1.47;0.47;;;28.10;99.90;;;;;;5072976;28;20179;-71
2023/01/23 01:01:14;;;;;;;2.27;0.50;;;27.60;99.90;;;;;;5073417;28;20263;-71
2023/01/23 01:03:43;;;;;;;1.30;0.70;;;27.40;99.90;;;;;;5073339;28;20195;-70
2023/01/23 01:06:11;;;;;;;1.70;0.47;;;26.80;99.90;;;;;;5072859;28;20289;-71
2023/01/23 01:08:38;;;;;;;1.23;0.40;;;26.30;99.90;;;;;;5073189;28;20223;-70
2023/01/23 01:11:06;;;;;;;2.10;0.73;;;26.20;99.90;;;;;;5073162;28;20223;-71
2023/01/23 01:13:34;;;;;;;1.53;0.50;;;26.20;99.90;;;;;;5072899;28;20180;-76
2023/01/23 01:16:02;;;;;;;1.90;0.70;;;26.20;99.90;;;;;;5073435;28;20795;-70
2023/01/23 01:18:29;;;;;;;1.90;0.43;;;26.30;99.90;;;;;;5072882;28;20560;-70
2023/01/23 01:20:58;;;;;;;1.20;0.60;;;26.30;99.90;;;;;;5072642;28;20209;-71
2023/01/23 01:23:26;;;;;;;1.37;0.47;;;26.10;99.90;;;;;;5072345;28;20192;-73
2023/01/23 01:25:57;;;;;;;3.13;0.80;;;26.00;99.90;;;;;;5072437;28;20190;-70
2023/01/23 01:28:27;;;;;;;2.60;0.70;;;26.00;99.90;;;;;;5072240;28;20276;-74
2023/01/23 01:30:54;;;;;;;2.77;0.67;;;26.00;99.90;;;;;;5072820;28;20172;-82
2023/01/23 01:33:23;;;;;;;2.67;0.57;;;26.00;99.90;;;;;;5072744;28;20187;-70
2023/01/23 01:35:51;;;;;;;1.97;0.60;;;25.90;99.90;;;;;;5072219;28;20187;-73
2023/01/23 01:38:18;;;;;;;1.33;0.60;;;25.70;99.90;;;;;;5072425;28;20184;-81
2023/01/23 01:40:45;;;;;;;0.70;0.40;;;25.60;99.90;;;;;;5072379;28;20194;-70
2023/01/23 01:43:22;;;;;;;3.37;0.80;;;25.50;99.90;;;;;;5071931;28;20716;-70
2023/01/23 01:46:14;;;;;;;2.37;1.20;;;25.20;99.90;;;;;;5072723;28;20171;-70
2023/01/23 01:48:44;;;;;;;2.73;0.73;;;25.20;99.90;;;;;;5072729;28;20211;-81
2023/01/23 01:51:38;;;;;;;1.73;0.53;;;25.10;99.90;;;;;;5072064;28;20537;-70
2023/01/23 01:54:23;;;;;;;4.33;0.53;;;24.90;99.90;;;;;;5071355;28;20180;-70
2023/01/23 01:56:56;;;;;;;4.73;0.97;;;24.60;99.90;;;;;;5072454;28;20183;-71
2023/01/23 01:59:26;;;;;;;2.53;0.60;;;24.50;99.90;;;;;;5071161;28;20183;-79
2023/01/23 02:02:04;;;;;;;1.13;0.50;;;24.50;99.90;;;;;;5072084;28;20180;-70
2023/01/23 02:04:36;;;;;;;2.50;1.10;;;24.50;99.90;;;;;;5072295;28;20194;-72
2023/01/23 02:07:08;;;;;;;3.13;0.57;;;24.60;99.90;;;;;;5070636;28;20176;-70
2023/01/23 02:09:36;;;;;;;2.07;0.50;;;24.70;99.90;;;;;;5071868;28;20289;-82
2023/01/23 02:12:04;;;;;;;3.90;0.73;;;24.70;99.90;;;;;;5072245;28;20168;-70
2023/01/23 02:14:31;;;;;;;2.80;0.60;;;24.80;99.90;;;;;;5071829;28;20369;-71
2023/01/23 02:17:01;;;;;;;2.80;0.63;;;24.90;99.90;;;;;;5071954;28;20550;-69
2023/01/23 02:19:43;;;;;;;6.53;0.83;;;25.20;99.90;;;;;;5071928;28;20229;-71
2023/01/23 02:22:23;;;;;;;2.87;0.80;;;25.40;99.90;;;;;;5071613;28;20179;-77
2023/01/23 02:25:15;;;;;;;2.27;0.60;;;25.60;99.90;;;;;;5071794;28;20214;-71
2023/01/23 02:27:42;;;;;;;4.97;1.00;;;25.90;99.90;;;;;;5071057;28;20204;-71
2023/01/23 02:30:11;;;;;;;2.30;0.97;;;26.50;99.90;;;;;;5072067;28;20259;-69
2023/01/23 02:32:38;;;;;;;6.27;0.90;;;27.60;99.90;;;;;;5071346;28;20214;-77
2023/01/23 02:35:12;;;;;;;6.60;1.00;;;28.20;99.90;;;;;;5071458;28;20207;-70
2023/01/23 02:37:45;;;;;;;5.17;1.40;;;28.40;99.90;;;;;;5071757;28;20179;-75
2023/01/23 02:40:14;;;;;;;5.67;1.10;;;27.80;99.90;;;;;;5071881;28;20188;-69
2023/01/23 02:42:45;;;;;;;2.37;0.97;;;27.60;99.90;;;;;;5071478;28;20241;-71
2023/01/23 02:45:12;;;;;;;1.47;0.70;;;27.60;99.90;;;;;;5071417;28;20657;-70
2023/01/23 02:47:40;;;;;;;4.87;0.80;;;27.90;99.90;;;;;;5071028;28;20264;-71
2023/01/23 02:50:07;;;;;;;9.87;1.03;;;28.40;99.90;;;;;;5070967;28;20168;-74
2023/01/23 02:52:35;;;;;;;5.00;1.50;;;29.20;99.90;;;;;;5071461;28;20183;-69
2023/01/23 02:55:02;;;;;;;4.17;0.87;;;29.60;99.90;;;;;;5071180;28;20220;-71
2023/01/23 02:57:29;;;;;;;2.47;0.70;;;29.80;99.90;;;;;;5070158;28;20232;-73
2023/01/23 03:00:15;;;;;;;3.87;0.83;;;29.90;99.90;;;;;;5071403;28;20184;-70
2023/01/23 03:02:43;;;;;;;4.40;0.90;;;29.50;99.90;;;;;;5070960;28;20228;-78
2023/01/23 03:05:10;;;;;;;1.60;0.73;;;29.10;99.90;;;;;;5070751;28;20569;-70
2023/01/23 03:07:38;;;;;;;2.63;0.93;;;28.70;99.90;;;;;;5070777;28;20180;-71
2023/01/23 03:10:06;;;;;;;4.70;1.03;;;28.60;99.90;;;;;;5071097;28;20280;-73
2023/01/23 03:12:34;;;;;;;6.00;1.10;;;28.60;99.90;;;;;;5070865;28;20268;-74
2023/01/23 03:15:04;;;;;;;1.63;0.57;;;28.70;99.90;;;;;;5071375;28;20188;-78
2023/01/23 03:17:32;;;;;;;1.87;0.73;;;29.20;99.90;;;;;;5071235;28;20208;-70
2023/01/23 03:20:00;;;;;;;1.17;0.40;;;29.60;99.90;;;;;;5070885;28;20255;-78
2023/01/23 03:22:27;;;;;;;1.47;0.63;;;29.60;99.90;;;;;;5071292;28;20171;-70
2023/01/23 03:24:56;;;;;;;2.10;0.77;;;29.10;99.90;;;;;;5071341;28;20228;-70
2023/01/23 03:27:24;;;;;;;2.53;0.80;;;29.30;99.90;;;;;;5070654;28;20176;-70
2023/01/23 03:32:37;;;;;;;5.67;1.10;;;29.60;99.90;;;;;;5071389;28;20229;-71
2023/01/23 03:35:08;;;;;;;2.03;0.80;;;29.10;99.90;;;;;;5070836;28;20168;-74
2023/01/23 03:37:36;;;;;;;1.73;0.70;;;28.50;99.90;;;;;;5071160;28;20182;-76
2023/01/23 03:42:49;;;;;;;3.00;0.83;;;28.90;99.90;;;;;;5070649;28;20233;-70
2023/01/23 03:45:17;;;;;;;5.03;0.70;;;29.40;99.90;;;;;;5073427;28;20188;-70
2023/01/23 03:47:44;;;;;;;3.67;0.63;;;29.70;99.90;;;;;;5073326;28;20216;-69
2023/01/23 03:50:11;;;;;;;1.87;0.50;;;29.90;99.90;;;;;;5074190;28;20186;-70
2023/01/23 03:52:39;;;;;;;3.53;0.50;;;30.10;99.90;;;;;;5074503;28;20172;-70
2023/01/23 03:55:07;;;;;;;3.47;0.70;;;30.10;99.90;;;;;;5072819;28;20643;-80
2023/01/23 03:57:34;;;;;;;3.20;0.53;;;30.50;99.90;;;;;;5074270;28;20506;-69
2023/01/23 04:00:02;;;;;;;5.20;0.80;;;30.60;99.90;;;;;;5075884;28;20229;-69
2023/01/23 04:02:29;;;;;;;2.93;0.70;;;30.90;99.90;;;;;;5076488;28;20182;-78
2023/01/23 04:04:57;;;;;;;2.93;0.60;;;31.10;99.90;;;;;;5073910;28;20180;-76
2023/01/23 04:07:24;;;;;;;7.00;1.13;;;31.40;99.90;;;;;;5074843;28;20172;-69
2023/01/23 04:09:51;;;;;;;6.03;0.80;;;31.00;99.90;;;;;;5076030;28;20288;-69
2023/01/23 04:12:19;;;;;;;3.93;0.90;;;31.00;99.90;;;;;;5075642;28;20179;-73
2023/01/23 04:14:46;;;;;;;4.63;0.70;;;30.90;99.90;;;;;;5073908;28;20542;-70
2023/01/23 04:17:13;;;;;;;2.20;0.80;;;30.40;99.90;;;;;;5074233;28;20625;-69
2023/01/23 04:19:41;;;;;;;5.47;1.00;;;29.80;99.90;;;;;;5073919;28;20176;-74
2023/01/23 04:22:09;;;;;;;3.90;0.80;;;29.30;99.90;;;;;;5074345;28;20523;-70
2023/01/23 04:24:36;;;;;;;2.40;0.80;;;29.30;99.90;;;;;;5073419;28;20606;-78
2023/01/23 04:27:04;;;;;;;4.50;1.10;;;29.10;99.90;;;;;;5074008;28;20264;-69
2023/01/23 04:29:32;;;;;;;2.50;0.60;;;28.90;99.90;;;;;;5074292;28;20217;-70
2023/01/23 04:31:59;;;;;;;2.33;0.53;;;29.30;99.90;;;;;;5074014;28;20182;-69
2023/01/23 04:34:26;;;;;;;4.90;0.80;;;29.70;99.90;;;;;;5073546;28;20180;-69
2023/01/23 04:36:54;;;;;;;4.70;1.10;;;29.60;99.90;;;;;;5073954;28;20206;-70
2023/01/23 04:39:21;;;;;;;3.23;0.77;;;29.20;99.90;;;;;;5073594;28;20500;-70
2023/01/23 04:41:49;;;;;;;5.63;1.00;;;29.30;99.90;;;;;;5073185;28;20172;-80
2023/01/23 04:44:19;;;;;;;5.23;1.00;;;29.70;99.90;;;;;;5073388;28;20168;-72
2023/01/23 04:46:48;;;;;;;11.53;2.57;;;29.70;99.90;;;;;;5073606;28;20179;-74
2023/01/23 04:49:17;;;;;;;8.17;1.80;;;29.00;99.90;;;;;;5073145;28;20219;-69
2023/01/23 04:51:46;;;;;;;3.30;0.90;;;28.60;99.90;;;;;;5073475;28;20172;-75
2023/01/23 04:54:14;;;;;;;6.53;1.43;;;28.40;99.90;;;;;;5072614;28;20660;-69
2023/01/23 04:56:42;;;;;;;4.57;0.90;;;28.30;99.90;;;;;;5072860;28;20271;-69
2023/01/23 04:59:09;;;;;;;28.53;4.80;;;28.00;99.90;;;;;;5073114;28;20238;-69
2023/01/23 05:01:37;;;;;;;5.13;1.13;;;27.80;99.90;;;;;;5072825;28;20533;-70
2023/01/23 05:04:05;;;;;;;3.33;1.23;;;28.00;99.90;;;;;;5072615;28;20207;-76
2023/01/23 05:06:32;;;;;;;2.50;0.80;;;27.80;99.90;;;;;;5073004;28;20183;-71
2023/01/23 05:09:00;;;;;;;3.23;0.80;;;27.60;99.90;;;;;;5073004;28;20208;-70
2023/01/23 05:11:27;;;;;;;1.47;0.70;;;27.60;99.90;;;;;;5072552;28;20563;-70
2023/01/23 05:13:54;;;;;;;5.43;1.00;;;28.10;99.90;;;;;;5072861;28;20186;-76
2023/01/23 05:16:22;;;;;;;1.70;0.73;;;28.20;99.90;;;;;;5072054;28;20192;-70
2023/01/23 05:18:49;;;;;;;11.03;1.50;;;27.70;99.90;;;;;;5072318;28;20629;-71
2023/01/23 05:21:17;;;;;;;8.87;1.20;;;27.50;99.90;;;;;;5072818;28;20178;-76
2023/01/23 05:23:44;;;;;;;3.30;0.90;;;27.30;99.90;;;;;;5072783;28;20184;-71
2023/01/23 05:26:11;;;;;;;5.03;0.70;;;26.90;99.90;;;;;;5082234;28;20210;-77
2023/01/23 05:28:39;;;;;;;3.00;0.80;;;26.70;99.90;;;;;;5076069;28;20215;-73
2023/01/23 05:31:06;;;;;;;1.43;0.60;;;26.50;99.90;;;;;;5072164;28;20192;-73
2023/01/23 05:33:34;;;;;;;1.97;0.60;;;26.40;99.90;;;;;;5072063;28;20194;-69
2023/01/23 05:36:02;;;;;;;6.37;1.13;;;26.30;99.90;;;;;;5071922;28;20557;-69
2023/01/23 05:38:30;;;;;;;6.33;1.50;;;26.20;99.90;;;;;;5072473;28;20580;-69
2023/01/23 05:40:57;;;;;;;4.10;0.90;;;26.00;99.90;;;;;;5071761;28;20179;-69
2023/01/23 05:43:24;;;;;;;4.90;0.73;;;25.90;99.90;;;;;;5072321;28;20184;-69
2023/01/23 05:45:52;;;;;;;3.50;0.50;;;26.00;99.90;;;;;;5072200;28;20198;-72
2023/01/23 05:48:19;;;;;;;2.27;0.60;;;25.90;99.90;;;;;;5071574;28;20208;-70
2023/01/23 05:50:47;;;;;;;5.43;0.77;;;25.80;99.90;;;;;;5072223;28;20258;-69
2023/01/23 05:53:15;;;;;;;5.23;1.10;;;25.80;99.90;;;;;;5072185;28;20187;-71
2023/01/23 05:55:42;;;;;;;10.13;2.20;;;25.80;99.90;;;;;;5070373;28;20259;-79
2023/01/23 05:58:10;;;;;;;8.10;2.80;;;25.80;99.90;;;;;;5072062;28;20176;-70
2023/01/23 06:00:37;;;;;;;16.53;3.93;;;25.80;99.90;;;;;;5072138;28;20214;-72
2023/01/23 06:03:05;;;;;;;18.60;3.73;;;26.00;99.90;;;;;;5071622;28;20578;-69
2023/01/23 06:05:33;;;;;;;14.93;4.60;;;26.10;99.90;;;;;;5070743;28;20180;-70
2023/01/23 06:08:00;;;;;;;3.90;1.33;;;26.20;99.90;;;;;;5071760;28;20242;-70
2023/01/23 06:10:27;;;;;;;7.83;1.73;;;26.10;99.90;;;;;;5071308;28;20277;-70
2023/01/23 06:12:55;;;;;;;78.63;19.23;;;26.20;99.90;;;;;;5071923;28;20546;-68
2023/01/23 06:15:22;;;;;;;34.93;9.47;;;26.20;99.90;;;;;;5071993;28;20253;-69
2023/01/23 06:17:50;;;;;;;2.30;1.13;;;26.30;99.90;;;;;;5069914;28;20621;-72
2023/01/23 06:20:17;;;;;;;16.43;3.60;;;26.20;99.90;;;;;;5072318;28;20515;-77
2023/01/23 06:22:45;;;;;;;6.00;1.40;;;26.20;99.90;;;;;;5075722;28;20251;-68
2023/01/23 06:25:12;;;;;;;69.50;7.30;;;26.40;99.90;;;;;;5072606;28;20199;-74
2023/01/23 06:27:40;;;;;;;14.90;1.83;;;27.00;99.90;;;;;;5071799;28;20266;-70
2023/01/23 06:30:08;;;;;;;7.53;1.03;;;27.00;99.90;;;;;;5071537;28;20184;-70
2023/01/23 06:32:36;;;;;;;4.20;1.03;;;26.80;99.90;;;;;;5071456;28;20176;-70
2023/01/23 06:35:03;;;;;;;4.77;1.10;;;26.60;99.90;;;;;;5071797;28;20314;-71
2023/01/23 06:37:31;;;;;;;3.67;1.60;;;26.40;99.90;;;;;;5071699;28;20180;-70
2023/01/23 06:39:58;;;;;;;5.07;0.80;;;26.30;99.90;;;;;;5069620;28;20183;-71
2023/01/23 06:42:25;;;;;;;6.73;0.97;;;26.60;99.90;;;;;;5071673;28;20702;-69
2023/01/23 06:44:53;;;;;;;6.23;1.40;;;27.30;99.90;;;;;;5071637;28;20179;-72
2023/01/23 06:47:22;;;;;;;4.37;1.30;;;27.80;99.90;;;;;;5071182;28;20198;-75
2023/01/23 06:49:49;;;;;;;28.10;2.97;;;28.20;99.90;;;;;;5071382;28;20690;-73
2023/01/23 06:52:16;;;;;;;18.03;2.73;;;28.40;99.90;;;;;;5071281;28;20231;-70
2023/01/23 06:54:44;;;;;;;24.37;2.87;;;28.20;99.90;;;;;;5071191;28;20633;-73
2023/01/23 06:57:12;;;;;;;4.73;1.13;;;28.00;99.90;;;;;;5071461;28;20175;-69
2023/01/23 06:59:39;;;;;;;5.80;1.23;;;27.90;99.90;;;;;;5071420;28;20190;-70
2023/01/23 07:02:08;;;;;;;4.17;1.17;;;27.60;99.90;;;;;;5070718;28;20633;-71
2023/01/23 07:04:35;;;;;;;8.00;1.43;;;27.30;99.90;;;;;;5071483;28;20184;-70
2023/01/23 07:07:03;;;;;;;5.50;0.97;;;27.00;99.90;;;;;;5071563;28;20179;-70
2023/01/23 07:09:30;;;;;;;12.23;2.00;;;26.70;99.90;;;;;;5070418;28;20242;-70
2023/01/23 07:11:58;;;;;;;5.77;1.00;;;26.50;99.90;;;;;;5071412;28;20204;-71
2023/01/23 07:14:26;;;;;;;3.13;0.90;;;26.30;99.90;;;;;;5071547;28;20208;-72
2023/01/23 07:16:54;;;;;;;16.03;1.20;;;26.50;99.90;;;;;;5070793;28;20208;-71
2023/01/23 07:19:22;;;;;;;3.47;0.63;;;26.60;99.90;;;;;;5075363;28;20191;-71
2023/01/23 07:21:50;;;;;;;4.80;0.70;;;26.50;99.90;;;;;;5075216;28;20242;-74
2023/01/23 07:24:17;;;;;;;2.03;0.63;;;26.70;99.90;;;;;;5074273;28;20663;-71
2023/01/23 07:26:44;;;;;;;4.97;1.03;;;26.70;99.90;;;;;;5075054;28;20175;-70
2023/01/23 07:29:13;;;;;;;3.57;0.80;;;26.60;99.90;;;;;;5074375;28;20293;-75
2023/01/23 07:31:41;;;;;;;2.17;0.50;;;26.40;99.90;;;;;;5074370;28;20183;-69
2023/01/23 07:34:08;;;;;;;2.17;0.67;;;26.20;99.90;;;;;;5074070;28;20190;-71
2023/01/23 07:36:36;;;;;;;2.30;0.70;;;26.20;99.90;;;;;;5074894;28;20172;-76
2023/01/23 07:39:03;;;;;;;7.23;1.20;;;26.50;99.90;;;;;;5074461;28;20226;-73
2023/01/23 07:41:30;;;;;;;3.67;0.60;;;26.60;99.90;;;;;;5074720;28;20266;-71
2023/01/23 07:43:58;;;;;;;4.17;0.80;;;26.80;99.90;;;;;;5073632;28;20230;-71
2023/01/23 07:46:25;;;;;;;4.07;0.70;;;27.00;99.90;;;;;;5074647;28;20172;-70
2023/01/23 07:48:55;;;;;;;1.27;0.57;;;27.00;99.90;;;;;;5074856;28;20226;-71
2023/01/23 07:51:22;;;;;;;3.03;0.73;;;27.00;99.90;;;;;;5075260;28;20172;-72
2023/01/23 07:53:49;;;;;;;4.37;0.70;;;26.80;99.90;;;;;;5073906;28;20222;-71
2023/01/23 07:56:17;;;;;;;2.13;0.80;;;26.60;99.90;;;;;;5072926;28;20187;-70
2023/01/23 07:58:48;;;;;;;1.93;0.63;;;26.30;99.90;;;;;;5074336;28;20208;-71
2023/01/23 08:01:15;;;;;;;49.53;5.50;;;26.20;99.90;;;;;;5073862;28;20266;-79
2023/01/23 08:03:43;;;;;;;104.13;11.03;;;26.20;99.90;;;;;;5074517;28;20184;-76
2023/01/23 08:06:10;;;;;;;19.27;2.03;;;26.20;99.90;;;;;;5074271;28;20620;-70
2023/01/23 08:08:38;;;;;;;4.53;0.80;;;26.20;99.90;;;;;;5073701;28;20318;-69
2023/01/23 08:11:10;;;;;;;6.20;0.83;;;26.10;99.90;;;;;;5074349;28;20235;-70
2023/01/23 08:13:38;;;;;;;4.93;1.00;;;26.10;99.90;;;;;;5074023;28;20956;-83
2023/01/23 08:16:06;;;;;;;5.67;0.80;;;26.00;99.90;;;;;;5073656;28;20652;-70
2023/01/23 08:18:34;;;;;;;5.80;0.70;;;25.90;99.90;;;;;;5073801;28;20604;-70
2023/01/23 08:21:02;;;;;;;7.00;0.90;;;25.80;99.90;;;;;;5075646;28;20212;-70
2023/01/23 08:23:33;;;;;;;3.03;0.90;;;25.70;99.90;;;;;;5075799;28;20160;-71
2023/01/23 08:26:04;;;;;;;2.60;0.63;;;25.70;99.90;;;;;;5076425;28;20255;-70
2023/01/23 08:28:31;;;;;;;4.67;0.70;;;25.70;99.90;;;;;;5075473;28;20704;-71
2023/01/23 08:31:04;;;;;;;5.60;0.97;;;25.60;99.90;;;;;;5076056;28;20187;-70
2023/01/23 08:33:33;;;;;;;4.33;0.80;;;25.40;99.90;;;;;;5076249;28;20255;-70
2023/01/23 08:36:01;;;;;;;7.97;1.10;;;25.00;99.90;;;;;;5076760;28;20179;-70
2023/01/23 08:38:28;;;;;;;3.87;1.10;;;24.80;99.90;;;;;;5076804;28;20180;-75
2023/01/23 08:40:59;;;;;;;2.77;0.90;;;24.70;99.90;;;;;;5076537;28;20218;-70
2023/01/23 08:43:27;;;;;;;4.20;0.87;;;24.50;99.90;;;;;;5075863;28;20725;-71
2023/01/23 08:45:56;;;;;;;4.53;1.37;;;24.50;99.90;;;;;;5077092;28;20232;-71
2023/01/23 08:48:25;;;;;;;4.27;0.90;;;24.30;99.90;;;;;;5076011;28;20215;-73
2023/01/23 08:51:05;;;;;;;7.37;1.00;;;24.10;99.90;;;;;;5076053;28;20190;-71
2023/01/23 08:53:34;;;;;;;7.10;1.07;;;23.90;99.90;;;;;;5076299;28;20174;-72
2023/01/23 08:56:04;;;;;;;1.87;0.73;;;23.70;99.90;;;;;;5075691;28;20183;-76
2023/01/23 08:58:31;;;;;;;3.80;0.80;;;23.60;99.90;;;;;;5075275;28;20180;-71
2023/01/23 09:00:59;;;;;;;4.23;0.80;;;23.60;99.90;;;;;;5075561;28;20600;-71
2023/01/23 09:03:27;;;;;;;2.73;0.70;;;23.50;99.90;;;;;;5074088;28;20373;-71
2023/01/23 09:05:54;;;;;;;6.93;1.33;;;23.40;99.90;;;;;;5075394;28;20655;-72
2023/01/23 09:08:22;;;;;;;5.17;1.00;;;23.30;99.90;;;;;;5074431;28;20219;-70
2023/01/23 09:10:49;;;;;;;2.33;0.83;;;23.20;99.90;;;;;;5074486;28;20243;-71
2023/01/23 09:13:18;;;;;;;3.43;1.03;;;23.20;99.90;;;;;;5075589;28;20183;-76
2023/01/23 09:15:46;;;;;;;4.87;1.20;;;23.10;99.90;;;;;;5076459;28;20239;-70
2023/01/23 09:18:13;;;;;;;5.83;1.23;;;23.00;99.90;;;;;;5077491;28;20202;-71
2023/01/23 09:20:41;;;;;;;5.03;0.77;;;22.90;99.90;;;;;;5075526;28;20207;-84
2023/01/23 09:23:08;;;;;;;4.27;1.17;;;22.90;99.90;;;;;;5075476;28;20603;-71
2023/01/23 09:25:37;;;;;;;1.83;0.77;;;22.80;99.90;;;;;;5075283;28;20227;-70
2023/01/23 09:28:04;;;;;;;4.77;1.13;;;22.70;99.90;;;;;;5074727;28;20255;-71
2023/01/23 09:30:32;;;;;;;1.57;0.60;;;22.70;99.90;;;;;;5075400;28;20187;-70
2023/01/23 09:32:59;;;;;;;3.00;0.80;;;22.60;99.90;;;;;;5075916;28;20167;-84
2023/01/23 09:35:27;;;;;;;3.47;1.07;;;22.60;99.90;;;;;;5076037;28;20172;-74
2023/01/23 09:38:00;;;;;;;3.67;0.80;;;22.50;99.90;;;;;;5074264;28;20179;-69
2023/01/23 09:40:35;;;;;;;4.37;1.00;;;22.50;99.90;;;;;;5074014;28;20172;-74
2023/01/23 09:43:30;;;;;;;3.13;0.90;;;22.50;99.90;;;;;;5074489;28;20178;-72
2023/01/23 09:46:40;;;;;;;5.23;1.03;;;22.50;99.90;;;;;;5073258;28;20188;-69
2023/01/23 09:49:52;;;;;;;2.40;0.80;;;22.40;99.90;;;;;;5073814;28;20216;-71
2023/01/23 09:52:27;;;;;;;5.53;1.30;;;22.30;99.90;;;;;;5042292;28;20194;-70
2023/01/23 09:55:17;;;;;;;3.53;0.97;;;22.30;99.90;;;;;;5073442;28;20188;-70
2023/01/23 09:57:55;;;;;;;5.13;0.90;;;22.20;99.90;;;;;;5070867;28;20209;-69
2023/01/23 10:00:31;;;;;;;5.90;1.27;;;22.20;99.90;;;;;;5074057;28;20594;-70
2023/01/23 10:03:02;;;;;;;5.80;1.03;;;22.20;99.90;;;;;;5073430;28;20648;-70
2023/01/23 10:05:57;;;;;;;2.83;0.93;;;22.10;99.90;;;;;;5073607;28;20177;-70
2023/01/23 10:08:47;;;;;;;5.30;1.03;;;22.10;99.90;;;;;;5074687;28;20207;-71
2023/01/23 10:11:41;;;;;;;4.90;1.00;;;22.00;99.90;;;;;;5073636;28;20210;-70
2023/01/23 10:14:19;;;;;;;1.67;0.90;;;22.00;99.90;;;;;;5073647;28;20207;-71
2023/01/23 10:16:59;;;;;;;4.17;1.03;;;21.90;99.90;;;;;;5073129;28;20228;-76
2023/01/23 10:19:36;;;;;;;2.47;0.83;;;21.80;99.90;;;;;;5078288;28;20172;-71
2023/01/23 10:22:33;;;;;;;6.40;1.00;;;21.70;99.90;;;;;;5074779;28;20609;-71
2023/01/23 10:25:21;;;;;;;4.23;1.30;;;21.60;99.90;;;;;;5074468;28;20245;-71
2023/01/23 10:27:50;;;;;;;4.00;0.90;;;21.60;99.90;;;;;;5076368;28;20176;-72
2023/01/23 10:30:37;;;;;;;4.60;1.33;;;21.50;99.90;;;;;;5075493;28;20187;-79
2023/01/23 10:33:15;;;;;;;3.33;0.87;;;21.50;99.90;;;;;;5074899;28;20181;-71
2023/01/23 10:36:01;;;;;;;3.23;0.87;;;21.40;99.90;;;;;;5073657;28;20178;-70
2023/01/23 10:38:28;;;;;;;4.17;0.80;;;21.40;99.90;;;;;;5073065;28;20176;-72
2023/01/23 10:41:14;;;;;;;3.53;0.77;;;21.40;99.90;;;;;;5073513;28;20207;-72
2023/01/23 10:43:42;;;;;;;4.10;1.10;;;21.30;99.90;;;;;;5073526;28;20277;-74
2023/01/23 10:46:16;;;;;;;3.50;1.03;;;21.30;99.90;;;;;;5073748;28;20179;-71
2023/01/23 10:48:45;;;;;;;3.90;0.90;;;21.30;99.90;;;;;;5073005;28;20210;-71
2023/01/23 10:51:28;;;;;;;3.37;0.97;;;21.30;99.90;;;;;;5072975;28;20300;-70
2023/01/23 10:54:19;;;;;;;3.67;1.07;;;21.40;99.90;;;;;;5077965;28;20258;-71
2023/01/23 10:56:50;;;;;;;4.50;0.80;;;21.40;99.90;;;;;;5078191;28;20177;-71
2023/01/23 10:59:40;;;;;;;4.23;1.03;;;21.50;99.90;;;;;;5078590;28;20210;-71
2023/01/23 11:02:13;;;;;;;5.70;1.13;;;21.60;99.90;;;;;;5075128;28;20172;-71
2023/01/23 11:04:43;;;;;;;4.30;0.83;;;21.60;99.90;;;;;;5076189;28;20199;-69
2023/01/23 11:07:15;;;;;;;5.87;0.83;;;21.70;99.90;;;;;;5078162;28;20168;-69
2023/01/23 11:10:00;;;;;;;6.73;1.10;;;21.70;99.90;;;;;;5076480;28;20304;-70
2023/01/23 11:12:33;;;;;;;2.53;0.87;;;21.80;99.90;;;;;;5076803;28;20657;-71
2023/01/23 11:15:16;;;;;;;5.87;0.93;;;21.70;99.90;;;;;;5076634;28;20168;-73
2023/01/23 11:17:43;;;;;;;3.90;1.20;;;21.60;99.90;;;;;;5076446;28;20704;-74
2023/01/23 11:20:23;;;;;;;4.50;1.03;;;21.50;99.90;;;;;;5076186;28;20216;-70
2023/01/23 11:23:12;;;;;;;7.67;0.87;;;21.40;99.90;;;;;;5076581;28;20178;-70
2023/01/23 11:25:42;;;;;;;3.50;1.40;;;21.30;99.90;;;;;;5076086;28;20181;-70
2023/01/23 11:28:45;;;;;;;4.80;1.17;;;21.20;99.90;;;;;;5074910;28;20646;-71
2023/01/23 11:31:28;;;;;;;3.97;1.10;;;21.10;99.90;;;;;;5076167;28;20677;-71
2023/01/23 11:34:10;;;;;;;4.63;1.20;;;21.00;99.90;;;;;;5076209;28;20178;-70
2023/01/23 11:36:52;;;;;;;4.23;0.90;;;20.90;99.90;;;;;;5076240;28;20172;-70
2023/01/23 11:39:37;;;;;;;2.50;0.87;;;20.80;99.90;;;;;;5076228;28;20624;-70
2023/01/23 11:42:05;;;;;;;8.60;0.87;;;20.70;99.90;;;;;;5076125;28;20175;-71
2023/01/23 11:44:33;;;;;;;4.47;0.83;;;20.60;99.90;;;;;;5076078;28;20218;-70
2023/01/23 11:47:30;;;;;;;3.27;0.87;;;20.60;99.90;;;;;;5074840;28;20180;-70
2023/01/23 11:50:15;;;;;;;1.30;0.80;;;20.50;99.90;;;;;;5076441;28;20687;-70
2023/01/23 11:53:01;;;;;;;2.47;1.23;;;20.40;99.90;;;;;;5075736;28;20168;-71
2023/01/23 11:55:58;;;;;;;4.37;1.30;;;20.40;99.90;;;;;;5075819;28;20176;-71
2023/01/23 11:59:04;;;;;;;2.67;0.93;;;20.30;99.90;;;;;;5075605;28;20648;-71
2023/01/23 12:02:03;;;;;;;4.53;0.80;;;20.30;99.90;;;;;;5067150;28;20615;-71
2023/01/23 12:05:01;;;;;;;4.93;1.20;;;20.30;99.90;;;;;;5075017;28;20197;-71
2023/01/23 12:07:30;;;;;;;3.57;1.37;;;20.30;99.90;;;;;;5075766;28;20173;-71
2023/01/23 12:10:42;;;;;;;3.03;1.10;;;20.20;99.90;;;;;;5075637;28;20284;-70
2023/01/23 12:13:15;;;;;;;5.17;1.67;;;20.20;99.90;;;;;;5063342;28;20188;-79
2023/01/23 12:16:04;;;;;;;4.27;1.03;;;20.20;99.90;;;;;;5075877;28;20205;-71
2023/01/23 12:18:40;;;;;;;4.80;1.50;;;20.20;99.90;;;;;;5075997;28;20176;-71
2023/01/23 12:21:20;;;;;;;4.50;1.37;;;20.10;99.90;;;;;;5075509;28;20168;-71
2023/01/23 12:24:20;;;;;;;6.83;1.60;;;20.10;99.90;;;;;;5076977;28;20261;-70
2023/01/23 12:27:12;;;;;;;3.67;1.23;;;20.10;99.90;;;;;;5077268;28;20177;-71
2023/01/23 12:30:02;;;;;;;6.27;1.27;;;20.10;99.90;;;;;;5075652;28;20214;-70
2023/01/23 12:32:46;;;;;;;3.50;1.07;;;20.00;99.90;;;;;;5077630;28;20553;-71
2023/01/23 12:35:26;;;;;;;6.33;1.20;;;20.10;99.90;;;;;;5078083;28;20185;-71
2023/01/23 12:38:30;;;;;;;4.70;1.00;;;20.10;99.90;;;;;;5077158;28;20279;-70
2023/01/23 12:40:58;;;;;;;8.00;1.47;;;20.10;99.90;;;;;;5053791;28;20177;-70
2023/01/23 12:43:34;;;;;;;6.30;1.47;;;20.10;99.90;;;;;;5073444;28;20199;-71
2023/01/23 12:46:42;;;;;;;5.07;1.10;;;20.20;99.90;;;;;;5074678;28;20186;-72
2023/01/23 12:49:28;;;;;;;3.17;1.10;;;20.10;99.90;;;;;;5077266;28;20572;-71
2023/01/23 12:52:14;;;;;;;5.67;1.30;;;20.00;99.90;;;;;;5077871;28;20164;-71
2023/01/23 12:55:20;;;;;;;5.33;1.10;;;20.00;99.90;;;;;;5078565;28;20206;-81
2023/01/23 12:57:53;;;;;;;8.43;1.33;;;19.90;99.90;;;;;;5065882;28;20295;-70
2023/01/23 13:00:38;;;;;;;3.87;1.20;;;19.80;99.90;;;;;;5077814;28;20183;-74
2023/01/23 13:03:26;;;;;;;5.43;1.60;;;19.80;99.90;;;;;;5076298;28;20179;-71
2023/01/23 13:06:00;;;;;;;8.83;1.33;;;19.80;99.90;;;;;;5078677;28;20173;-72
2023/01/23 13:08:36;;;;;;;2.67;1.30;;;19.80;99.90;;;;;;5077566;28;20312;-71
2023/01/23 13:11:39;;;;;;;6.33;1.60;;;19.80;99.90;;;;;;5077144;28;20560;-71
2023/01/23 13:14:44;;;;;;;6.10;1.40;;;19.80;99.90;;;;;;5077723;28;20190;-71
2023/01/23 13:17:31;;;;;;;4.83;1.50;;;19.80;99.90;;;;;;5075965;28;20531;-71
2023/01/23 13:23:26;;;;;;;5.57;1.70;;;19.90;99.90;;;;;;5076762;28;20691;-71